Lubers, Colorado
Current Conditions -  °F | °C
As of 8:53 PM on Tuesday 27 Jan 2015 (Local Time) from KLAA Reporting Station
Clear Clear  
Wind Chill: 43°   Ceiling: Unl
Heat Index: 47°   Visibility: 10mi
Dew Point: 33°   Wind: 8mph
Humidity: 59%   Direction: 280°W
Pressure: 29.95"   Gusts: NA
Location:  38.0584°N, 102.928°W
Report Text: KLAA 280353Z AUTO 28007KT 10SM CLR 08/01 A2995 RMK AO2 SLP131 T00830006
Loading
Personal Weather Stations






























Interactive Weather Map New forecast layout! Learn more

10-Day Weather Forecast

Advertisements
Track Severe Weather on mobile